createdAt,value
2022-08-03T00:01:28.596Z,1.45
2022-08-03T00:04:23.328Z,1.42
2022-08-03T00:07:29.210Z,1.23
2022-08-03T00:10:23.824Z,1.80
2022-08-03T00:13:18.757Z,1.92
2022-08-03T00:16:14.629Z,1.52
2022-08-03T00:19:09.604Z,2.50
2022-08-03T00:22:04.309Z,2.08
2022-08-03T00:24:58.893Z,1.90
2022-08-03T00:27:54.488Z,2.15
2022-08-03T00:30:50.763Z,1.42
2022-08-03T00:33:58.888Z,1.35
2022-08-03T00:36:54.690Z,1.80
2022-08-03T00:39:49.345Z,1.60
2022-08-03T00:42:55.114Z,1.88
2022-08-03T00:45:50.149Z,1.30
2022-08-03T00:48:45.850Z,1.75
2022-08-03T00:51:41.097Z,1.98
2022-08-03T00:54:36.867Z,1.27
2022-08-03T00:57:34.039Z,1.77
2022-08-03T01:00:30.227Z,1.70
2022-08-03T01:03:24.861Z,1.70
2022-08-03T01:07:05.994Z,1.42
2022-08-03T01:10:27.142Z,1.77
2022-08-03T01:14:04.611Z,1.45
2022-08-03T01:17:12.712Z,1.40
2022-08-03T01:20:13.492Z,1.40
2022-08-03T01:23:28.836Z,1.20
2022-08-03T01:27:00.709Z,1.73
2022-08-03T01:30:02.021Z,1.40
2022-08-03T01:33:24.068Z,1.20
2022-08-03T01:36:35.669Z,1.67
2022-08-03T01:39:33.660Z,1.77
2022-08-03T01:42:28.920Z,1.73
2022-08-03T01:45:26.039Z,1.33
2022-08-03T01:48:21.801Z,1.55
2022-08-03T01:51:20.522Z,1.58
2022-08-03T01:54:16.645Z,1.40
2022-08-03T01:57:12.782Z,1.65
2022-08-03T02:00:11.116Z,1.25
2022-08-03T02:03:09.105Z,1.10
2022-08-03T02:07:01.772Z,1.13
2022-08-03T02:09:22.733Z,1.30
2022-08-03T02:12:17.929Z,1.20
2022-08-03T02:15:14.203Z,1.33
2022-08-03T02:18:12.007Z,1.33
2022-08-03T02:21:11.300Z,0.98
2022-08-03T02:24:07.143Z,1.20
2022-08-03T02:27:02.987Z,1.10
2022-08-03T02:30:10.378Z,1.48
2022-08-03T02:33:06.358Z,1.08
2022-08-03T02:36:04.511Z,1.67
2022-08-03T02:39:04.256Z,1.30
2022-08-03T02:42:03.737Z,1.40
2022-08-03T02:45:02.318Z,1.40
2022-08-03T02:48:01.920Z,0.82
2022-08-03T02:50:59.807Z,1.33
2022-08-03T02:53:56.014Z,0.85
2022-08-03T02:56:51.454Z,1.48
2022-08-03T02:59:47.624Z,0.80
2022-08-03T03:02:44.611Z,1.27
2022-08-03T03:05:52.072Z,1.23
2022-08-03T03:08:50.847Z,0.98
2022-08-03T03:11:47.796Z,1.05
2022-08-03T03:14:42.820Z,0.90
2022-08-03T03:17:39.058Z,1.05
2022-08-03T03:20:36.163Z,1.52
2022-08-03T03:23:32.486Z,1.33
2022-08-03T03:26:29.093Z,1.58
2022-08-03T03:29:24.940Z,1.45
2022-08-03T03:32:19.739Z,1.15
2022-08-03T03:35:15.871Z,1.20
2022-08-03T03:38:10.561Z,0.88
2022-08-03T03:41:06.254Z,0.80
2022-08-03T03:44:01.157Z,1.30
2022-08-03T03:46:56.746Z,1.13
2022-08-03T03:49:51.826Z,1.00
2022-08-03T03:52:46.956Z,1.10
2022-08-03T03:55:59.317Z,1.00
2022-08-03T03:58:57.849Z,1.10
2022-08-03T04:01:58.932Z,1.02
2022-08-03T04:05:11.705Z,1.00
2022-08-03T04:08:33.593Z,1.10
2022-08-03T04:11:31.999Z,1.48
2022-08-03T04:14:35.692Z,1.15
2022-08-03T04:17:32.638Z,0.90
2022-08-03T04:20:31.362Z,0.90
2022-08-03T04:23:29.485Z,1.13
2022-08-03T04:26:26.637Z,1.00
2022-08-03T04:29:22.648Z,1.52
2022-08-03T04:32:18.789Z,1.00
2022-08-03T04:35:13.721Z,1.13
2022-08-03T04:38:10.491Z,0.80
2022-08-03T04:41:09.162Z,1.15
2022-08-03T04:44:07.352Z,0.57
2022-08-03T04:47:02.471Z,0.93
2022-08-03T04:49:57.606Z,0.80
2022-08-03T04:52:53.092Z,1.33
2022-08-03T04:55:47.694Z,0.80
2022-08-03T04:58:42.321Z,0.88
2022-08-03T05:01:37.315Z,0.90
2022-08-03T05:04:32.091Z,0.70
2022-08-03T05:07:35.889Z,1.13
2022-08-03T05:10:31.249Z,0.73
2022-08-03T05:13:25.906Z,0.70
2022-08-03T05:16:20.655Z,0.80
2022-08-03T05:19:15.303Z,1.00
2022-08-03T05:22:09.893Z,0.55
2022-08-03T05:25:04.709Z,0.80
2022-08-03T05:27:59.272Z,0.80
2022-08-03T05:30:54.012Z,0.65
2022-08-03T05:33:50.109Z,0.70
2022-08-03T05:36:44.713Z,0.60
2022-08-03T05:39:39.557Z,0.50
2022-08-03T05:42:34.415Z,0.85
2022-08-03T05:45:28.991Z,0.73
2022-08-03T05:48:23.601Z,0.70
2022-08-03T05:51:18.719Z,0.60
2022-08-03T05:54:14.556Z,0.40
2022-08-03T05:57:09.127Z,0.68
2022-08-03T06:00:08.515Z,0.85
2022-08-03T06:03:04.000Z,0.60
2022-08-03T06:06:00.354Z,0.40
2022-08-03T06:08:55.706Z,0.52
2022-08-03T06:11:50.298Z,0.52
2022-08-03T06:14:45.048Z,0.60
2022-08-03T06:17:47.979Z,0.40
2022-08-03T06:20:42.581Z,0.82
2022-08-03T06:23:53.947Z,0.90
2022-08-03T06:26:50.329Z,0.60
2022-08-03T06:29:44.942Z,1.20
2022-08-03T06:32:43.202Z,0.63
2022-08-03T06:35:46.828Z,0.77
2022-08-03T06:38:45.145Z,0.47
2022-08-03T06:41:44.707Z,0.45
2022-08-03T06:44:40.069Z,0.63
2022-08-03T06:47:34.608Z,0.60
2022-08-03T06:50:29.226Z,1.30
2022-08-03T06:53:23.824Z,0.60
2022-08-03T06:56:18.493Z,0.70
2022-08-03T07:00:08.895Z,0.55
2022-08-03T07:02:28.437Z,0.52
2022-08-03T07:05:24.425Z,0.50
2022-08-03T07:08:19.684Z,0.40
2022-08-03T07:11:30.135Z,0.60
2022-08-03T07:14:24.873Z,0.43
2022-08-03T07:17:19.532Z,0.50
2022-08-03T07:20:16.375Z,0.63
2022-08-03T07:23:16.081Z,0.30
2022-08-03T07:26:14.412Z,0.47
2022-08-03T07:29:14.882Z,0.55
2022-08-03T07:32:10.175Z,0.50
2022-08-03T07:35:08.731Z,1.02
2022-08-03T07:38:20.816Z,0.60
2022-08-03T07:41:15.670Z,0.50
2022-08-03T07:44:10.212Z,0.50
2022-08-03T07:47:04.753Z,0.82
2022-08-03T07:50:00.626Z,0.30
2022-08-03T07:52:57.395Z,0.50
2022-08-03T07:55:51.987Z,0.63
2022-08-03T07:58:46.943Z,0.60
2022-08-03T08:01:41.675Z,0.80
2022-08-03T08:04:36.658Z,0.60
2022-08-03T08:07:31.175Z,0.45
2022-08-03T08:10:25.905Z,0.95
2022-08-03T08:13:20.501Z,0.80
2022-08-03T08:16:15.057Z,1.33
2022-08-03T08:19:09.807Z,0.60
2022-08-03T08:22:08.159Z,0.70
2022-08-03T08:25:05.398Z,0.50
2022-08-03T08:28:31.452Z,0.38
2022-08-03T08:31:18.555Z,0.90
2022-08-03T08:34:13.349Z,0.68
2022-08-03T08:37:07.946Z,0.50
2022-08-03T08:40:02.649Z,0.70
2022-08-03T08:42:58.890Z,0.60
2022-08-03T08:45:56.020Z,0.70
2022-08-03T08:48:52.644Z,0.88
2022-08-03T08:51:59.063Z,0.60
2022-08-03T08:58:08.099Z,0.90
2022-08-03T09:03:57.286Z,0.70
2022-08-03T09:07:17.614Z,0.85
2022-08-03T09:10:12.682Z,0.70
2022-08-03T09:13:10.426Z,0.70
2022-08-03T09:16:22.671Z,0.50
2022-08-03T09:19:17.500Z,0.88
2022-08-03T09:22:18.804Z,0.80
2022-08-03T09:25:29.168Z,0.70
2022-08-03T09:29:00.204Z,0.80
2022-08-03T09:31:44.342Z,1.20
2022-08-03T09:34:39.569Z,0.70
2022-08-03T09:38:12.048Z,0.40
2022-08-03T09:40:49.699Z,0.88
2022-08-03T09:43:55.981Z,0.75
2022-08-03T09:46:57.773Z,0.93
2022-08-03T09:50:03.614Z,1.00
2022-08-03T09:53:04.813Z,0.98
2022-08-03T09:56:33.399Z,1.13
2022-08-03T09:59:28.033Z,0.98
2022-08-03T10:02:25.694Z,0.95
2022-08-03T10:08:27.854Z,1.25
2022-08-03T10:11:40.938Z,1.73
2022-08-03T10:14:38.576Z,1.63
2022-08-03T10:17:36.170Z,1.58
2022-08-03T10:20:45.834Z,1.48
2022-08-03T10:23:41.965Z,1.83
2022-08-03T10:26:38.610Z,1.48
2022-08-03T10:29:41.009Z,1.60
2022-08-03T10:33:01.099Z,1.63
2022-08-03T10:35:58.946Z,1.65
2022-08-03T10:38:54.779Z,1.85
2022-08-03T10:41:50.345Z,1.98
2022-08-03T10:44:45.022Z,1.90
2022-08-03T10:47:41.131Z,2.25
2022-08-03T10:50:36.021Z,1.83
2022-08-03T10:53:48.855Z,2.30
2022-08-03T10:57:14.308Z,2.13
2022-08-03T11:00:10.613Z,1.70
2022-08-03T11:03:15.555Z,1.90
2022-08-03T11:06:25.840Z,2.47
2022-08-03T11:09:21.129Z,2.10
2022-08-03T11:12:32.185Z,2.45
2022-08-03T11:15:37.234Z,2.30
2022-08-03T11:18:32.115Z,1.83
2022-08-03T11:21:54.195Z,2.03
2022-08-03T11:24:52.361Z,1.60
2022-08-03T11:27:47.102Z,2.15
2022-08-03T11:30:42.672Z,1.95
2022-08-03T11:33:38.280Z,2.40
2022-08-03T11:36:33.291Z,2.17
2022-08-03T11:39:48.750Z,2.00
2022-08-03T11:42:46.424Z,2.20
2022-08-03T11:45:41.004Z,2.20
2022-08-03T11:48:39.701Z,1.98
2022-08-03T11:51:34.439Z,2.50
2022-08-03T11:54:30.284Z,1.95
2022-08-03T11:59:01.616Z,1.92
2022-08-03T12:00:51.483Z,2.17
2022-08-03T12:03:46.502Z,2.92
2022-08-03T12:06:56.454Z,1.77
2022-08-03T12:10:12.660Z,1.95
2022-08-03T12:14:08.891Z,2.08
2022-08-03T12:16:26.786Z,1.58
2022-08-03T12:19:21.280Z,2.70
2022-08-03T12:22:20.142Z,2.30
2022-08-03T12:25:38.861Z,1.65
2022-08-03T12:28:37.434Z,2.08
2022-08-03T12:31:32.980Z,2.15
2022-08-03T12:34:50.719Z,1.50
2022-08-03T12:37:50.984Z,1.58
2022-08-03T12:40:45.594Z,2.17
2022-08-03T12:43:41.271Z,2.05
2022-08-03T12:46:47.778Z,1.85
2022-08-03T12:49:50.691Z,2.27
2022-08-03T12:52:48.379Z,2.58
2022-08-03T12:56:04.606Z,1.75
2022-08-03T12:58:57.538Z,1.90
2022-08-03T13:01:55.110Z,2.75
2022-08-03T13:04:51.989Z,2.17
2022-08-03T13:07:50.308Z,2.55
2022-08-03T13:10:44.858Z,2.20
2022-08-03T13:13:42.713Z,2.03
2022-08-03T13:16:37.260Z,2.25
2022-08-03T13:19:33.306Z,1.60
2022-08-03T13:22:34.665Z,1.60
2022-08-03T13:25:29.309Z,1.98
2022-08-03T13:28:23.843Z,1.98
2022-08-03T13:31:18.522Z,2.17
2022-08-03T13:34:14.430Z,1.83
2022-08-03T13:37:19.953Z,2.20
2022-08-03T13:40:14.685Z,1.85
2022-08-03T13:43:09.412Z,1.80
2022-08-03T13:46:04.014Z,2.17
2022-08-03T13:48:58.687Z,1.63
2022-08-03T13:51:53.153Z,1.55
2022-08-03T13:54:48.102Z,2.13
2022-08-03T13:58:04.030Z,2.58
2022-08-03T14:00:57.433Z,1.80
2022-08-03T14:03:55.378Z,1.65
2022-08-03T14:06:50.493Z,1.98
2022-08-03T14:09:44.993Z,2.00
2022-08-03T14:12:39.519Z,1.63
2022-08-03T14:15:37.297Z,1.60
2022-08-03T14:18:33.811Z,1.83
2022-08-03T14:21:28.629Z,2.03
2022-08-03T14:24:23.340Z,2.72
2022-08-03T14:27:18.479Z,1.80
2022-08-03T14:30:13.929Z,2.42
2022-08-03T14:33:08.550Z,1.77
2022-08-03T14:36:03.290Z,2.05
2022-08-03T14:39:01.212Z,2.58
2022-08-03T14:41:56.109Z,1.60
2022-08-03T14:44:50.839Z,1.90
2022-08-03T14:50:33.073Z,1.77
2022-08-03T14:50:59.812Z,1.65
2022-08-03T14:53:54.316Z,1.65
2022-08-03T14:56:48.861Z,1.40
2022-08-03T14:59:55.461Z,1.38
2022-08-03T15:02:51.787Z,1.65
2022-08-03T15:05:46.744Z,1.90
2022-08-03T15:08:41.218Z,2.30
2022-08-03T15:11:35.722Z,1.80
2022-08-03T15:14:33.284Z,1.30
2022-08-03T15:17:29.392Z,1.85
2022-08-03T15:20:39.317Z,1.90
2022-08-03T15:23:38.367Z,1.48
2022-08-03T15:26:36.610Z,1.65
2022-08-03T15:30:04.759Z,1.65
2022-08-03T15:32:50.451Z,2.10
2022-08-03T15:35:45.245Z,1.30
2022-08-03T15:38:39.749Z,1.35
2022-08-03T15:41:34.549Z,1.05
2022-08-03T15:44:29.033Z,1.98
2022-08-03T15:47:23.514Z,1.63
2022-08-03T15:50:18.029Z,1.60
2022-08-03T15:53:12.575Z,1.40
2022-08-03T15:56:15.393Z,1.60
2022-08-03T15:59:14.246Z,1.30
2022-08-03T16:02:08.897Z,1.30
2022-08-03T16:05:03.474Z,2.10
2022-08-03T16:07:59.072Z,1.75
2022-08-03T16:10:59.293Z,1.48
2022-08-03T16:14:11.869Z,1.50
2022-08-03T16:17:08.501Z,1.40
2022-08-03T16:20:07.484Z,1.40
2022-08-03T16:23:11.464Z,1.00
2022-08-03T16:26:09.141Z,1.27
2022-08-03T16:29:03.817Z,1.33
2022-08-03T16:32:09.602Z,1.33
2022-08-03T16:35:04.340Z,1.45
2022-08-03T16:37:59.285Z,1.20
2022-08-03T16:40:54.161Z,1.38
2022-08-03T16:43:48.642Z,1.42
2022-08-03T16:46:44.290Z,1.20
2022-08-03T16:49:54.188Z,1.08
2022-08-03T16:52:50.770Z,1.38
2022-08-03T16:55:53.226Z,1.20
2022-08-03T16:58:50.367Z,1.25
2022-08-03T17:01:48.176Z,1.63
2022-08-03T17:04:43.665Z,1.65
2022-08-03T17:07:41.851Z,1.75
2022-08-03T17:10:44.567Z,1.08
2022-08-03T17:13:41.202Z,1.35
2022-08-03T17:16:38.778Z,1.00
2022-08-03T17:19:42.483Z,1.20
2022-08-03T17:23:00.629Z,1.30
2022-08-03T17:26:04.005Z,1.00
2022-08-03T17:29:12.641Z,0.93
2022-08-03T17:32:10.660Z,1.30
2022-08-03T17:35:09.473Z,1.25
2022-08-03T17:38:08.962Z,1.25
2022-08-03T17:41:10.863Z,1.50
2022-08-03T17:44:15.465Z,1.08
2022-08-03T17:47:12.204Z,1.08
2022-08-03T17:50:24.297Z,1.33
2022-08-03T17:53:28.817Z,1.52
2022-08-03T17:56:44.995Z,0.88
2022-08-03T17:59:52.168Z,1.00
2022-08-03T18:03:18.680Z,1.50
2022-08-03T18:06:15.308Z,0.70
2022-08-03T18:13:00.974Z,0.93
2022-08-03T18:16:08.592Z,0.70
2022-08-03T18:19:09.317Z,1.23
2022-08-03T18:22:05.064Z,1.10
2022-08-03T18:25:00.734Z,1.10
2022-08-03T18:28:04.005Z,1.08
2022-08-03T18:30:58.992Z,1.20
2022-08-03T18:34:16.561Z,1.00
2022-08-03T18:37:09.065Z,0.98
2022-08-03T18:40:04.455Z,0.88
2022-08-03T18:43:08.976Z,0.90
2022-08-03T18:46:08.001Z,1.05
2022-08-03T18:49:20.911Z,1.02
2022-08-03T18:52:37.290Z,0.80
2022-08-03T18:55:59.324Z,1.10
2022-08-03T18:59:33.622Z,1.00
2022-08-03T19:03:00.129Z,0.77
2022-08-03T19:06:14.451Z,0.80
2022-08-03T19:09:20.896Z,1.00
2022-08-03T19:12:31.164Z,1.00
2022-08-03T19:15:36.953Z,0.80
2022-08-03T19:18:37.479Z,0.75
2022-08-03T19:21:35.125Z,0.77
2022-08-03T19:24:31.092Z,0.70
2022-08-03T19:27:28.268Z,0.90
2022-08-03T19:30:39.533Z,0.70
2022-08-03T19:33:55.705Z,0.70
2022-08-03T19:36:50.972Z,1.13
2022-08-03T19:39:47.266Z,0.98
2022-08-03T19:42:56.281Z,1.10
2022-08-03T19:46:05.764Z,1.20
2022-08-03T19:49:02.524Z,0.98
2022-08-03T19:52:03.188Z,0.80
2022-08-03T19:55:01.577Z,0.85
2022-08-03T19:58:02.292Z,1.02
2022-08-03T20:00:57.810Z,0.85
2022-08-03T20:03:54.113Z,0.75
2022-08-03T20:06:49.774Z,0.98
2022-08-03T20:09:46.277Z,1.08
2022-08-03T20:12:50.989Z,0.93
2022-08-03T20:15:46.855Z,0.80
2022-08-03T20:18:41.534Z,1.20
2022-08-03T20:21:37.625Z,1.00
2022-08-03T20:24:37.118Z,0.60
2022-08-03T20:28:07.976Z,0.70
2022-08-03T20:31:03.252Z,0.70
2022-08-03T20:33:57.857Z,0.98
2022-08-03T20:36:52.342Z,0.90
2022-08-03T20:39:49.551Z,0.98
2022-08-03T20:42:44.433Z,0.98
2022-08-03T20:46:00.360Z,0.82
2022-08-03T20:48:56.814Z,1.13
2022-08-03T20:51:54.512Z,1.15
2022-08-03T20:54:49.961Z,0.88
2022-08-03T20:57:49.241Z,0.80
2022-08-03T21:00:48.069Z,1.17
2022-08-03T21:03:55.392Z,1.05
2022-08-03T21:07:14.724Z,0.70
2022-08-03T21:10:15.448Z,1.02
2022-08-03T21:13:41.118Z,1.00
2022-08-03T21:16:39.334Z,1.10
2022-08-03T21:19:35.531Z,1.13
2022-08-03T21:22:34.431Z,1.42
2022-08-03T21:25:35.009Z,0.80
2022-08-03T21:28:30.634Z,1.17
2022-08-03T21:31:26.695Z,1.38
2022-08-03T21:34:23.122Z,0.60
2022-08-03T21:37:18.210Z,1.10
2022-08-03T21:40:15.537Z,1.23
2022-08-03T21:46:09.368Z,0.80
2022-08-03T21:50:05.363Z,1.23
2022-08-03T21:52:26.318Z,0.70
2022-08-03T21:55:21.252Z,0.70
2022-08-03T21:58:18.895Z,0.77
2022-08-03T22:01:15.221Z,1.00
2022-08-03T22:04:11.933Z,1.20
2022-08-03T22:07:30.431Z,0.80
2022-08-03T22:10:25.201Z,1.05
2022-08-03T22:13:44.285Z,0.85
2022-08-03T22:16:35.180Z,1.10
2022-08-03T22:19:29.812Z,1.00
2022-08-03T22:22:29.761Z,0.82
2022-08-03T22:25:30.822Z,0.60
2022-08-03T22:28:31.566Z,0.63
2022-08-03T22:31:30.873Z,0.70
2022-08-03T22:34:44.530Z,0.90
2022-08-03T22:37:39.703Z,1.00
2022-08-03T22:40:35.902Z,1.17
2022-08-03T22:43:30.574Z,0.80
2022-08-03T22:46:26.105Z,0.90
2022-08-03T22:49:21.166Z,0.80
2022-08-03T22:52:16.632Z,0.70
2022-08-03T22:55:24.559Z,1.08
2022-08-03T22:58:22.173Z,0.80
2022-08-03T23:01:22.031Z,0.75
2022-08-03T23:04:17.163Z,0.90
2022-08-03T23:07:18.541Z,0.70
2022-08-03T23:10:16.209Z,0.90
2022-08-03T23:13:11.009Z,0.73
2022-08-03T23:16:08.519Z,0.70
2022-08-03T23:19:17.223Z,0.68
2022-08-03T23:22:30.464Z,0.90
2022-08-03T23:25:28.741Z,0.73
2022-08-03T23:28:24.808Z,0.73
2022-08-03T23:31:22.649Z,0.90
2022-08-03T23:34:36.445Z,0.68
2022-08-03T23:37:31.727Z,0.73
2022-08-03T23:40:32.454Z,1.10
2022-08-03T23:43:51.011Z,0.60
2022-08-03T23:46:45.642Z,0.55
2022-08-03T23:49:40.197Z,0.50
2022-08-03T23:52:44.140Z,0.80
2022-08-03T23:56:20.689Z,0.73
2022-08-03T23:59:45.802Z,0.60
